Peterson, Iowa
Current Conditions -  °F | °C
As of 12:35 PM on Sunday 21 Dec 2014 (Local Time) from KCKP Reporting Station
Haze Haze  
Wind Chill: 29°   Ceiling: 600
Heat Index: 38°   Visibility: 2.5mi
Dew Point: 38°   Wind: 15mph
Humidity: 100%   Direction: 200°SSW
Pressure: 29.74"   Gusts: 18mph
Location:  42.92°N, 95.34°W
Report Text: KCKP 211835Z AUTO 20013G16KT 2 1/2SM BR OVC006 03/03 A2974 RMK AO2 T00330033
Loading
Personal Weather Stations






























Interactive Weather Map New forecast layout! Learn more

10-Day Weather Forecast

Advertisements
Track Severe Weather on mobile